Niles, MI (49120)

12:26 AM EDT en Septiembre 24, 2014 (GMT -0400)
Niles NWS Meso Net | Change Station
CLOSE
Current Station
Estación meteorológica personal
Location: Niles, MI
Altura: 820 ft
Estaciones meteorológicas cercanas

Alt 820 ft 41.84 °N, 86.28 °W | Updated 5 seconds ago

Despejado
Despejado
55.0 ° F
Sensación térmica 55.0 ° F
N
0.0
Viento Variable Viento desde Sur
Gusts 3.0 mph

Hoy
Alta -- | Baja -- ° F
--% Posibilidad de precipitaciones
Ayer
Alta -- | Baja -- ° F
Precip. -- pul
7:34 AM 7:38 PM
Creciente menguante, 0% visible
Presión 30.34 pul
Visibilidad 10.0 Millas
Nubes Despejado
Punto de rocío 52 ° F
Humedad 88%
Precipitaciones 0.00 pul
Espesor de la nieve No disponible.
UV 0 de una escala de 12
Polen 4.80 de una escala de 12
Ozono Buena
PM2.5 Buena
Flu Activity No disponible.
METAR KSBN 240354Z 00000KT 10SM CLR 12/09 A3034 RMK AO2 SLP274 T01170089

More Conditions Fewer Conditions

Presión 30.34 pul
Visibilidad 10.0 Millas
Nubes Despejado
Punto de rocío 52 ° F
Humedad 88%
Precipitaciones 0.00 pul
Espesor de la nieve No disponible.
UV 0 de una escala de 12
Polen 4.80 de una escala de 12
Ozono Buena
PM2.5 Buena
Flu Activity No disponible.
METAR KSBN 240354Z 00000KT 10SM CLR 12/09 A3034 RMK AO2 SLP274 T01170089

More Conditions Fewer Conditions

10-Day Weather Forecast

Almanac

Astronomía

Sep. 24, 2014 Salida Puesta
Hora real 7:34 AM EDT 7:38 PM EDT
Crepúsculo civil 7:06 AM EDT 8:06 PM EDT
Crepúsculo náutico 6:34 AM EDT 8:38 PM EDT
Crepúsculo astronómico 6:01 AM EDT 9:11 PM EDT
Luna 7:55 AM EDT 7:48 PM EDT
Horas de luz 12h 59m
Horas de luz
12h 04m
Tomorrow will be 2m 47s shorter.
Creciente menguante, 0% of the Moon is Illuminated
Hoy
Creciente menguante
Sep 24
Nueva
Oct 1
Cuarto creciente
Oct 8
Luna llena
Oct 15
Cuarto menguante

Extremos de ayer

Máximos del estado Bajos del estado

Community

WunderPhotos

Upload Photos

1,755,890 ¡fotos cargadas!

WunderBlogs® & News

Nearby

Calidad del aire

  Calidad del aire Índice AQ Contaminante
Ayer Buena
OZONE
Ayer Buena
PM2.5
Real Buena
PM2.5
Real Buena
OZONE
Martes Buena
OZONE
Martes Buena
PM2.5
Miércoles Buena
OZONE
Miércoles Buena
PM2.5
Jueves Buena
OZONE
Jueves Buena
PM2.5
Viernes Buena
OZONE
Viernes Buena
PM2.5
Sábado Buena
OZONE
Sábado Buena
PM2.5

Grosos de nieve

Estación Profundido Altura
No tenemos constancia de nieve nueva.

Actividad de terremotos

Ciudad Distance Mag. Tiempo y dato
No hay informes recientes de la actividad sísmica.
Magnitud mínima muestra es 2,5.

Temperaturas de aguas costeras

Lugar Temperatura
Holland, MI 61.0 ° F

Estaciones meteorológicas cercanas